Orlandia, Brazil
Current Conditions -  °F | °C
As of 11:00 AM on Saturday 25 Oct 2014 (Local Time) from SBRP Reporting Station
Light Rain Light Rain  
Wind Chill: 72°   Ceiling: 9000
Heat Index: 72°   Visibility: 6mi
Dew Point: 66°   Wind: 6mph
Humidity: 83%   Direction: 340°NNW
Pressure: 30.03"   Gusts: NA
Location:  20.71°S, 47.89°W
Report Text: SBRP 251300Z 34005KT 9000 -RA FEW009 SCT033 OVC090 22/19 Q1017
Loading
Personal Weather Stations






























Interactive Weather Map
Tropical Storm Tracking
New forecast layout! Learn more

10-Day Weather Forecast

Advertisements
Track Severe Weather on mobile